Time;durP1;ratioP1;P1;durP2;ratioP2;P2;SDS_P1;SDS_P2;PMS_P1;PMS_P2;Temp;Humidity;BMP_temperature;BMP_pressure;BME280_temperature;BME280_humidity;BME280_pressure;Samples;Min_cycle;Max_cycle;Signal;HPM_P1;HPM_P2
2021/07/09 00:01:50;;;;;;;5.50;5.10;;;15.60;99.90;;;;;;4899756;29;20965;-88
2021/07/09 00:04:16;;;;;;;5.83;4.90;;;15.70;99.90;;;;;;4902409;29;20467;-88
2021/07/09 00:06:44;;;;;;;5.13;4.63;;;15.70;99.90;;;;;;4886260;29;20488;-88
2021/07/09 00:09:10;;;;;;;5.87;5.47;;;15.80;99.90;;;;;;4912414;29;20208;-88
2021/07/09 00:11:38;;;;;;;7.70;5.87;;;15.70;99.90;;;;;;4902124;29;20449;-87
2021/07/09 00:14:05;;;;;;;5.63;5.13;;;15.70;99.90;;;;;;4899849;29;20444;-88
2021/07/09 00:16:31;;;;;;;5.70;5.30;;;15.70;99.90;;;;;;4901847;29;20468;-89
2021/07/09 00:18:59;;;;;;;5.83;5.27;;;15.80;99.90;;;;;;4895776;29;20810;-88
2021/07/09 00:21:26;;;;;;;5.40;4.87;;;15.70;99.90;;;;;;4902127;29;20196;-87
2021/07/09 00:23:52;;;;;;;5.33;4.93;;;15.80;99.90;;;;;;4903059;29;21056;-87
2021/07/09 00:26:18;;;;;;;5.73;5.23;;;15.70;99.90;;;;;;4898657;29;20575;-87
2021/07/09 00:28:43;;;;;;;5.90;5.37;;;15.70;99.90;;;;;;4900539;29;20232;-88
2021/07/09 00:31:09;;;;;;;5.37;4.97;;;15.70;99.90;;;;;;4882428;29;20211;-88
2021/07/09 00:33:35;;;;;;;6.10;5.60;;;15.70;99.90;;;;;;4904327;29;20205;-88
2021/07/09 00:36:01;;;;;;;5.87;5.37;;;15.70;99.90;;;;;;4905391;29;20200;-88
2021/07/09 00:38:26;;;;;;;6.63;6.03;;;15.60;99.90;;;;;;4901441;29;20216;-88
2021/07/09 00:40:53;;;;;;;6.83;6.23;;;15.60;99.90;;;;;;4882722;29;20243;-88
2021/07/09 00:43:20;;;;;;;6.90;6.17;;;15.60;99.90;;;;;;4898260;29;20204;-88
2021/07/09 00:45:49;;;;;;;6.63;5.70;;;15.50;99.90;;;;;;4883619;29;20475;-88
2021/07/09 00:48:18;;;;;;;7.43;6.73;;;15.50;99.90;;;;;;4896128;29;20480;-90
2021/07/09 00:50:52;;;;;;;6.50;6.00;;;15.40;99.90;;;;;;4883607;29;20509;-89
2021/07/09 00:53:21;;;;;;;8.47;6.53;;;15.40;99.90;;;;;;4900918;29;20457;-89
2021/07/09 00:55:47;;;;;;;7.30;6.60;;;15.40;99.90;;;;;;4899492;29;20460;-88
2021/07/09 00:58:14;;;;;;;8.03;7.43;;;15.40;99.90;;;;;;4905517;29;20487;-88
2021/07/09 01:00:40;;;;;;;7.60;7.00;;;15.30;99.90;;;;;;4888121;29;20196;-86
2021/07/09 01:03:07;;;;;;;8.20;7.50;;;15.30;99.90;;;;;;4900604;29;20484;-89
2021/07/09 01:05:35;;;;;;;8.00;7.17;;;15.30;99.90;;;;;;4899634;29;20204;-89
2021/07/09 01:08:05;;;;;;;7.73;7.13;;;15.30;99.90;;;;;;4901658;29;20800;-87
2021/07/09 01:10:31;;;;;;;9.33;7.33;;;15.30;99.90;;;;;;4880925;29;20487;-87
2021/07/09 01:13:11;;;;;;;9.27;8.37;;;15.30;99.90;;;;;;4883450;29;20472;-90
2021/07/09 01:15:44;;;;;;;9.10;8.20;;;15.20;99.90;;;;;;4899513;29;20467;-89
2021/07/09 01:18:12;;;;;;;8.40;7.67;;;15.20;99.90;;;;;;4887478;29;20462;-88
2021/07/09 01:20:42;;;;;;;9.33;8.47;;;15.20;99.90;;;;;;4898870;29;20484;-87
2021/07/09 01:23:25;;;;;;;;;;;;;;;;;;;;;
2021/07/09 01:25:55;;;;;;;9.10;8.20;;;15.20;99.90;;;;;;4897225;29;20950;-88
2021/07/09 01:28:35;;;;;;;8.60;7.90;;;15.20;99.90;;;;;;4884008;29;20528;-90
2021/07/09 01:31:08;;;;;;;8.63;7.77;;;15.20;99.90;;;;;;4900872;29;20452;-89
2021/07/09 01:36:18;;;;;;;7.60;6.87;;;15.30;99.90;;;;;;4893154;29;20460;-89
2021/07/09 01:38:48;;;;;;;7.40;6.80;;;15.30;99.90;;;;;;4893574;29;20492;-88
2021/07/09 01:41:16;;;;;;;7.97;7.17;;;15.30;99.90;;;;;;4880114;29;20464;-89
2021/07/09 01:43:48;;;;;;;7.60;6.90;;;15.30;99.90;;;;;;4880781;29;20453;-89
2021/07/09 01:46:21;;;;;;;7.60;7.00;;;15.40;99.90;;;;;;4881425;29;20503;-89
2021/07/09 01:48:47;;;;;;;8.63;7.83;;;15.30;99.90;;;;;;4880716;29;21662;-88
2021/07/09 01:51:13;;;;;;;8.43;7.73;;;15.30;99.90;;;;;;4880422;29;20472;-88
2021/07/09 01:53:47;;;;;;;7.97;7.30;;;15.40;99.90;;;;;;4882065;29;20196;-88
2021/07/09 01:56:17;;;;;;;8.60;7.67;;;15.40;99.90;;;;;;4899115;29;20452;-89
2021/07/09 01:58:49;;;;;;;8.60;6.80;;;15.40;99.90;;;;;;4885134;29;20456;-89
2021/07/09 02:01:15;;;;;;;7.83;7.13;;;15.40;99.90;;;;;;4904510;29;20444;-89
2021/07/09 02:03:41;;;;;;;8.07;7.37;;;15.40;99.90;;;;;;4885146;29;20512;-88
2021/07/09 02:06:09;;;;;;;7.70;6.80;;;15.40;99.90;;;;;;4899732;29;21021;-89
2021/07/09 02:08:35;;;;;;;7.73;7.13;;;15.40;99.90;;;;;;4900170;29;20964;-89
2021/07/09 02:11:08;;;;;;;8.03;7.00;;;15.40;99.90;;;;;;4881859;29;20452;-89
2021/07/09 02:13:34;;;;;;;6.57;6.00;;;15.40;99.90;;;;;;4893004;29;20472;-90
2021/07/09 02:16:02;;;;;;;6.57;6.07;;;15.40;99.90;;;;;;4899163;29;20465;-90
2021/07/09 02:18:32;;;;;;;5.63;5.23;;;15.40;99.90;;;;;;4897223;29;20192;-90
2021/07/09 02:20:59;;;;;;;7.10;5.47;;;15.40;99.90;;;;;;4893713;29;20579;-89
2021/07/09 02:23:25;;;;;;;5.53;5.03;;;15.40;99.90;;;;;;4898436;29;20444;-89
2021/07/09 02:25:51;;;;;;;7.37;5.20;;;15.50;99.90;;;;;;4897776;29;20468;-89
2021/07/09 02:28:17;;;;;;;5.03;4.53;;;15.50;99.90;;;;;;4896000;29;20508;-87
2021/07/09 02:30:45;;;;;;;5.53;4.60;;;15.50;99.90;;;;;;4895577;29;20459;-89
2021/07/09 02:33:11;;;;;;;5.60;4.33;;;15.40;99.90;;;;;;4896957;29;20939;-89
2021/07/09 02:35:40;;;;;;;6.70;4.70;;;15.40;99.90;;;;;;4905202;29;20471;-89
2021/07/09 02:38:07;;;;;;;5.40;4.90;;;15.40;99.90;;;;;;4904385;29;20444;-88
2021/07/09 02:40:35;;;;;;;5.10;4.60;;;15.40;99.90;;;;;;4903017;29;21076;-89
2021/07/09 02:43:04;;;;;;;6.33;4.87;;;15.40;99.90;;;;;;4906759;29;20523;-89
2021/07/09 02:45:31;;;;;;;4.93;4.53;;;15.40;99.90;;;;;;4897952;29;20456;-89
2021/07/09 02:47:57;;;;;;;5.30;4.80;;;15.30;99.90;;;;;;4901223;29;20493;-89
2021/07/09 02:50:30;;;;;;;6.13;4.50;;;15.30;99.90;;;;;;4902203;29;20467;-89
2021/07/09 02:53:00;;;;;;;5.90;5.00;;;15.40;99.90;;;;;;4900484;29;20206;-90
2021/07/09 02:55:27;;;;;;;4.73;4.43;;;15.30;99.90;;;;;;4902034;29;20959;-89
2021/07/09 02:58:00;;;;;;;4.70;4.30;;;15.30;99.90;;;;;;4886948;29;20728;-90
2021/07/09 03:00:30;;;;;;;8.70;5.50;;;15.20;99.90;;;;;;4901864;29;20448;-89
2021/07/09 03:03:01;;;;;;;5.10;4.60;;;15.20;99.90;;;;;;4890499;29;20491;-90
2021/07/09 03:05:37;;;;;;;5.30;4.90;;;15.20;99.90;;;;;;4899196;29;20851;-89
2021/07/09 03:08:07;;;;;;;5.47;4.97;;;15.30;99.90;;;;;;4899063;29;20527;-89
2021/07/09 03:10:34;;;;;;;6.50;5.20;;;15.20;99.90;;;;;;4886796;29;20464;-89
2021/07/09 03:13:00;;;;;;;5.60;5.20;;;15.20;99.90;;;;;;4907384;29;20622;-89
2021/07/09 03:15:26;;;;;;;5.80;5.20;;;15.20;99.90;;;;;;4902189;29;20448;-89
2021/07/09 03:17:52;;;;;;;5.87;5.47;;;15.30;99.90;;;;;;4902378;29;20513;-89
2021/07/09 03:20:18;;;;;;;5.80;5.30;;;15.20;99.90;;;;;;4901408;29;20223;-89
2021/07/09 03:22:45;;;;;;;5.57;4.90;;;15.20;99.90;;;;;;4902583;29;20444;-89
2021/07/09 03:25:14;;;;;;;5.23;4.83;;;15.30;99.90;;;;;;4902541;29;20459;-89
2021/07/09 03:27:40;;;;;;;5.33;4.93;;;15.30;99.90;;;;;;4884725;29;20570;-89
2021/07/09 03:30:08;;;;;;;5.53;4.70;;;15.30;99.90;;;;;;4885191;29;20491;-89
2021/07/09 03:32:35;;;;;;;5.37;4.70;;;15.30;99.90;;;;;;4904708;29;20226;-89
2021/07/09 03:35:02;;;;;;;5.47;4.93;;;15.30;99.90;;;;;;4886841;29;20443;-88
2021/07/09 03:37:28;;;;;;;5.57;4.87;;;15.40;99.90;;;;;;4878477;29;20475;-89
2021/07/09 03:39:55;;;;;;;5.30;4.43;;;15.40;99.90;;;;;;4901257;29;20464;-89
2021/07/09 03:42:20;;;;;;;4.40;4.10;;;15.30;99.90;;;;;;4901360;29;20266;-88
2021/07/09 03:44:46;;;;;;;4.30;4.00;;;15.40;99.90;;;;;;4902909;29;20428;-89
2021/07/09 03:47:13;;;;;;;4.70;4.07;;;15.40;99.90;;;;;;4902080;29;20251;-88
2021/07/09 03:49:41;;;;;;;4.40;4.00;;;15.30;99.90;;;;;;4903321;29;20192;-88
2021/07/09 03:52:10;;;;;;;4.67;3.87;;;15.30;99.90;;;;;;4900485;29;20519;-89
2021/07/09 03:54:36;;;;;;;3.93;3.63;;;15.30;99.90;;;;;;4904686;29;20532;-88
2021/07/09 03:57:04;;;;;;;4.67;4.17;;;15.30;99.90;;;;;;4898859;29;20511;-88
2021/07/09 03:59:30;;;;;;;4.50;3.93;;;15.30;99.90;;;;;;4887331;29;20954;-88
2021/07/09 04:01:56;;;;;;;5.03;3.83;;;15.30;99.90;;;;;;4885153;29;20465;-88
2021/07/09 04:04:22;;;;;;;4.40;4.10;;;15.30;99.90;;;;;;4906205;29;20746;-89
2021/07/09 04:06:48;;;;;;;4.90;4.50;;;15.30;99.90;;;;;;4903054;29;20216;-88
2021/07/09 04:09:15;;;;;;;4.27;3.97;;;15.20;99.90;;;;;;4897241;29;20189;-88
2021/07/09 04:11:40;;;;;;;4.70;4.30;;;15.20;99.90;;;;;;4900515;29;20465;-87
2021/07/09 04:14:06;;;;;;;6.30;4.50;;;15.30;99.90;;;;;;4904026;29;20196;-88
2021/07/09 04:16:32;;;;;;;5.13;4.67;;;15.30;99.90;;;;;;4902304;29;20682;-88
2021/07/09 04:18:58;;;;;;;6.33;4.53;;;15.20;99.90;;;;;;4897506;29;20727;-88
2021/07/09 04:21:23;;;;;;;4.43;4.13;;;15.30;99.90;;;;;;4902894;29;20269;-88
2021/07/09 04:23:49;;;;;;;4.70;4.30;;;15.30;99.90;;;;;;4901819;29;20181;-87
2021/07/09 04:26:15;;;;;;;4.87;4.37;;;15.30;99.90;;;;;;4897555;29;20224;-87
2021/07/09 04:28:41;;;;;;;5.97;5.37;;;15.30;99.90;;;;;;4901983;29;20200;-88
2021/07/09 04:31:07;;;;;;;5.00;4.60;;;15.20;99.90;;;;;;4886815;29;20837;-88
2021/07/09 04:33:33;;;;;;;6.43;5.80;;;15.30;99.90;;;;;;4898092;29;20196;-87
2021/07/09 04:35:58;;;;;;;5.20;4.80;;;15.20;99.90;;;;;;4899153;29;20264;-88
2021/07/09 04:38:24;;;;;;;6.70;5.87;;;15.20;99.90;;;;;;4895497;29;20254;-87
2021/07/09 04:40:53;;;;;;;6.10;5.70;;;15.30;99.90;;;;;;4883273;29;20196;-88
2021/07/09 04:43:19;;;;;;;7.67;7.07;;;15.20;99.90;;;;;;4898128;29;20205;-88
2021/07/09 04:45:44;;;;;;;7.10;6.50;;;15.30;99.90;;;;;;4887098;29;20523;-87
2021/07/09 04:48:10;;;;;;;7.00;6.40;;;15.20;99.90;;;;;;4904189;29;20280;-88
2021/07/09 04:50:36;;;;;;;6.60;6.10;;;15.30;99.90;;;;;;4903946;29;20267;-87
2021/07/09 04:53:03;;;;;;;7.13;6.43;;;15.20;99.90;;;;;;4901916;29;20202;-88
2021/07/09 04:55:29;;;;;;;6.80;6.20;;;15.20;99.90;;;;;;4887299;29;20483;-88
2021/07/09 04:57:55;;;;;;;6.40;5.80;;;15.40;99.90;;;;;;4904884;29;20442;-88
2021/07/09 05:00:21;;;;;;;7.50;6.40;;;15.30;99.90;;;;;;4901477;29;20499;-86
2021/07/09 05:02:47;;;;;;;5.37;4.87;;;15.30;99.90;;;;;;4900153;29;20456;-88
2021/07/09 05:05:15;;;;;;;6.10;5.50;;;15.30;99.90;;;;;;4882231;29;20208;-87
2021/07/09 05:07:41;;;;;;;6.60;6.00;;;15.30;99.90;;;;;;4901008;29;20220;-88
2021/07/09 05:10:09;;;;;;;5.73;5.33;;;15.20;99.90;;;;;;4900082;29;20480;-87
2021/07/09 05:12:34;;;;;;;6.50;5.90;;;15.30;99.90;;;;;;4898780;29;20544;-87
2021/07/09 05:15:00;;;;;;;6.20;5.70;;;15.20;99.90;;;;;;4898885;29;20536;-87
2021/07/09 05:17:26;;;;;;;5.90;5.40;;;15.30;99.90;;;;;;4895484;29;20236;-87
2021/07/09 05:19:55;;;;;;;6.47;5.33;;;15.20;99.90;;;;;;4900069;29;20914;-87
2021/07/09 05:22:24;;;;;;;5.77;5.30;;;15.20;99.90;;;;;;4901496;29;20784;-87
2021/07/09 05:24:55;;;;;;;6.03;5.50;;;15.20;99.90;;;;;;4895215;29;20552;-87
2021/07/09 05:27:30;;;;;;;5.50;5.10;;;15.20;99.90;;;;;;4899167;29;20489;-88
2021/07/09 05:29:57;;;;;;;5.30;4.80;;;15.20;99.90;;;;;;4903115;29;20460;-87
2021/07/09 05:32:25;;;;;;;5.67;5.17;;;15.20;99.90;;;;;;4903180;29;22207;-87
2021/07/09 05:34:52;;;;;;;5.27;4.87;;;15.10;99.90;;;;;;4899828;29;20449;-86
2021/07/09 05:37:18;;;;;;;5.30;4.90;;;15.10;99.90;;;;;;4902395;29;20444;-87
2021/07/09 05:39:44;;;;;;;6.63;5.27;;;15.10;99.90;;;;;;4900101;29;20448;-87
2021/07/09 05:42:10;;;;;;;5.30;4.90;;;15.00;99.90;;;;;;4900249;29;20456;-87
2021/07/09 05:44:36;;;;;;;6.40;5.90;;;15.00;99.90;;;;;;4902593;29;20452;-87
2021/07/09 05:47:03;;;;;;;5.70;5.20;;;15.00;99.90;;;;;;4899184;29;20479;-88
2021/07/09 05:49:28;;;;;;;6.40;5.37;;;15.00;99.90;;;;;;4898933;29;20204;-87
2021/07/09 05:51:54;;;;;;;5.40;4.93;;;15.10;99.90;;;;;;4899704;29;20487;-89
2021/07/09 05:54:20;;;;;;;7.17;5.30;;;15.10;99.90;;;;;;4901070;29;20671;-88
2021/07/09 05:56:46;;;;;;;5.93;5.40;;;15.10;99.90;;;;;;4900734;29;20204;-87
2021/07/09 05:59:11;;;;;;;6.50;5.50;;;15.10;99.90;;;;;;4899777;29;20204;-88
2021/07/09 06:01:37;;;;;;;10.90;4.87;;;15.10;99.90;;;;;;4899565;29;20260;-88
2021/07/09 06:04:03;;;;;;;5.10;4.60;;;15.20;99.90;;;;;;4898954;29;20209;-88
2021/07/09 06:06:29;;;;;;;5.57;5.03;;;15.30;99.90;;;;;;4899126;29;20521;-88
2021/07/09 06:08:54;;;;;;;5.37;4.87;;;15.30;99.90;;;;;;4899698;29;20681;-88
2021/07/09 06:11:20;;;;;;;4.87;4.30;;;15.20;99.90;;;;;;4899930;29;20241;-88
2021/07/09 06:13:46;;;;;;;7.10;5.03;;;15.30;99.90;;;;;;4900324;29;20280;-88
2021/07/09 06:16:14;;;;;;;5.47;4.70;;;15.30;99.90;;;;;;4886539;29;20215;-88
2021/07/09 06:18:39;;;;;;;5.60;5.10;;;15.30;99.90;;;;;;4901566;29;20291;-88
2021/07/09 06:21:05;;;;;;;5.30;4.83;;;15.40;99.90;;;;;;4895832;29;20600;-88
2021/07/09 06:23:31;;;;;;;5.83;5.30;;;15.20;99.90;;;;;;4900228;29;20291;-87
2021/07/09 06:25:57;;;;;;;5.67;5.10;;;15.20;99.90;;;;;;4900773;29;20548;-88
2021/07/09 06:28:23;;;;;;;6.03;4.83;;;15.30;99.90;;;;;;4900351;29;20197;-88
2021/07/09 06:30:48;;;;;;;5.40;4.90;;;15.30;99.90;;;;;;4899668;29;20244;-87
2021/07/09 06:33:14;;;;;;;5.90;5.40;;;15.30;99.90;;;;;;4903419;29;20188;-88
2021/07/09 06:35:40;;;;;;;5.87;5.37;;;15.30;99.90;;;;;;4904017;29;20492;-88
2021/07/09 06:38:07;;;;;;;5.60;5.20;;;15.50;99.90;;;;;;4899077;29;20247;-88
2021/07/09 06:40:37;;;;;;;5.27;4.77;;;15.50;99.90;;;;;;4904078;29;20440;-89
2021/07/09 06:43:03;;;;;;;6.10;5.50;;;15.60;99.90;;;;;;4899316;29;20453;-88
2021/07/09 06:45:29;;;;;;;5.63;5.10;;;15.60;99.90;;;;;;4896399;29;20441;-88
2021/07/09 06:47:54;;;;;;;5.30;4.90;;;15.60;99.90;;;;;;4898033;29;20496;-88
2021/07/09 06:50:20;;;;;;;5.20;4.80;;;15.50;99.90;;;;;;4897773;29;20279;-88
2021/07/09 06:52:46;;;;;;;5.40;4.90;;;15.50;99.90;;;;;;4903291;29;20197;-88
2021/07/09 06:55:13;;;;;;;5.40;4.90;;;15.50;99.90;;;;;;4900187;29;20216;-88
2021/07/09 06:57:46;;;;;;;6.30;5.63;;;15.60;99.90;;;;;;4909556;29;20856;-88
2021/07/09 07:00:14;;;;;;;14.17;5.60;;;15.60;99.90;;;;;;4896978;29;20432;-88
2021/07/09 07:02:41;;;;;;;6.63;5.87;;;15.70;99.90;;;;;;4896220;29;20460;-89
2021/07/09 07:05:08;;;;;;;6.07;5.47;;;15.70;99.90;;;;;;4900948;29;20460;-88
2021/07/09 07:07:33;;;;;;;6.07;5.57;;;15.70;99.90;;;;;;4884665;29;20480;-88
2021/07/09 07:09:59;;;;;;;5.07;4.67;;;15.80;99.90;;;;;;4898574;29;20463;-87
2021/07/09 07:12:27;;;;;;;5.70;5.20;;;15.80;99.90;;;;;;4896465;29;20301;-88
2021/07/09 07:14:53;;;;;;;5.80;5.40;;;15.80;99.90;;;;;;4898519;29;20224;-88
2021/07/09 07:17:20;;;;;;;5.53;5.13;;;15.90;99.90;;;;;;4901058;29;20472;-88
2021/07/09 07:19:51;;;;;;;5.60;5.10;;;16.10;99.90;;;;;;4884776;29;20452;-90
2021/07/09 07:22:19;;;;;;;7.00;6.30;;;16.20;99.90;;;;;;4903594;29;20573;-90
2021/07/09 07:24:48;;;;;;;5.53;4.83;;;16.20;99.90;;;;;;4888573;29;20453;-89
2021/07/09 07:27:19;;;;;;;5.83;5.33;;;16.30;99.90;;;;;;4901522;29;20503;-89
2021/07/09 07:29:45;;;;;;;8.13;5.40;;;16.30;99.90;;;;;;4886112;29;20579;-89
2021/07/09 07:32:11;;;;;;;6.23;5.73;;;16.50;99.90;;;;;;4901416;29;20619;-88
2021/07/09 07:34:37;;;;;;;5.90;5.40;;;16.60;99.90;;;;;;4885636;29;21035;-88
2021/07/09 07:37:03;;;;;;;5.63;5.13;;;16.90;99.90;;;;;;4901677;29;20200;-88
2021/07/09 07:39:29;;;;;;;6.10;5.50;;;17.00;99.90;;;;;;4899753;29;21025;-89
2021/07/09 07:41:55;;;;;;;6.03;5.43;;;17.00;99.90;;;;;;4903767;29;20964;-89
2021/07/09 07:44:22;;;;;;;7.00;6.40;;;17.10;99.90;;;;;;4898844;29;20853;-89
2021/07/09 07:46:50;;;;;;;6.77;6.27;;;16.90;99.90;;;;;;4887382;29;20228;-89
2021/07/09 07:49:16;;;;;;;14.83;8.07;;;16.90;99.90;;;;;;4899759;29;20452;-87
2021/07/09 07:51:41;;;;;;;7.67;6.67;;;16.60;99.90;;;;;;4901614;29;20839;-87
2021/07/09 07:54:07;;;;;;;7.43;6.73;;;16.60;99.90;;;;;;4902417;29;20303;-88
2021/07/09 07:56:33;;;;;;;7.13;6.50;;;16.70;99.90;;;;;;4903262;29;20283;-88
2021/07/09 07:58:59;;;;;;;7.37;6.87;;;16.90;99.90;;;;;;4904409;29;20218;-88
2021/07/09 08:01:25;;;;;;;7.57;7.00;;;16.90;99.90;;;;;;4885132;29;20215;-87
2021/07/09 08:03:51;;;;;;;7.80;7.20;;;17.00;99.90;;;;;;4905561;29;20204;-88
2021/07/09 08:06:17;;;;;;;7.37;5.80;;;17.10;99.90;;;;;;4906881;29;20495;-87
2021/07/09 08:08:43;;;;;;;6.93;6.30;;;17.20;99.90;;;;;;4898686;29;20488;-88
2021/07/09 08:11:10;;;;;;;6.57;6.07;;;17.40;99.90;;;;;;4903362;29;20354;-88
2021/07/09 08:13:36;;;;;;;6.50;5.97;;;17.40;99.90;;;;;;4903071;29;20456;-88
2021/07/09 08:16:02;;;;;;;6.57;6.07;;;17.50;99.90;;;;;;4901404;29;20458;-88
2021/07/09 08:18:27;;;;;;;6.43;5.80;;;17.50;99.90;;;;;;4900960;29;20794;-88
2021/07/09 08:20:55;;;;;;;6.67;6.07;;;17.50;99.90;;;;;;4901171;29;20871;-88
2021/07/09 08:23:21;;;;;;;6.20;5.70;;;17.50;99.90;;;;;;4901561;29;20184;-88
2021/07/09 08:25:49;;;;;;;6.40;5.93;;;17.50;99.90;;;;;;4900045;29;20516;-88
2021/07/09 08:28:19;;;;;;;7.10;6.50;;;17.50;99.90;;;;;;4900806;29;20580;-87
2021/07/09 08:30:46;;;;;;;6.43;6.03;;;17.50;99.90;;;;;;4898242;29;20442;-87
2021/07/09 08:33:12;;;;;;;6.37;5.80;;;17.40;99.90;;;;;;4899540;29;20511;-88
2021/07/09 08:35:38;;;;;;;6.10;5.70;;;17.70;99.90;;;;;;4881571;29;20441;-87
2021/07/09 08:38:04;;;;;;;6.07;5.67;;;18.00;99.90;;;;;;4899772;29;20455;-87
2021/07/09 08:40:30;;;;;;;5.80;5.40;;;18.10;99.90;;;;;;4902051;29;21021;-88
2021/07/09 08:42:56;;;;;;;6.53;6.10;;;18.30;99.90;;;;;;4898899;29;21064;-88
2021/07/09 08:45:22;;;;;;;6.70;6.20;;;18.20;99.90;;;;;;4887180;29;20488;-88
2021/07/09 08:47:48;;;;;;;6.97;6.47;;;18.00;99.90;;;;;;4899807;29;20228;-89
2021/07/09 08:50:14;;;;;;;7.20;6.60;;;17.70;99.90;;;;;;4903205;29;20195;-87
2021/07/09 08:52:41;;;;;;;7.57;6.80;;;17.60;99.90;;;;;;4902156;29;20456;-88
2021/07/09 08:55:12;;;;;;;7.27;6.57;;;17.50;99.90;;;;;;4901164;29;20444;-88
2021/07/09 08:57:43;;;;;;;6.70;6.30;;;17.50;99.90;;;;;;4893349;29;21014;-87
2021/07/09 09:00:31;;;;;;;7.80;7.20;;;17.60;99.90;;;;;;4881112;29;20455;-88
2021/07/09 09:02:57;;;;;;;7.77;6.80;;;17.70;99.90;;;;;;4900126;29;20453;-88
2021/07/09 09:05:26;;;;;;;9.73;6.77;;;17.80;99.90;;;;;;4906068;29;21132;-87
2021/07/09 09:08:02;;;;;;;6.63;5.83;;;17.80;99.90;;;;;;4890039;29;20484;-87
2021/07/09 09:10:45;;;;;;;6.67;6.17;;;17.90;99.90;;;;;;4882986;29;20512;-87
2021/07/09 09:13:46;;;;;;;6.43;5.93;;;18.30;99.90;;;;;;4882435;29;20520;-87
2021/07/09 09:16:15;;;;;;;5.40;5.00;;;18.40;99.90;;;;;;4847587;29;20456;-88
2021/07/09 09:18:47;;;;;;;5.97;5.50;;;18.50;99.90;;;;;;4895132;29;20483;-89
2021/07/09 09:21:39;;;;;;;7.53;6.83;;;18.70;99.90;;;;;;4899290;29;20436;-88
2021/07/09 09:24:05;;;;;;;6.60;6.10;;;18.60;99.90;;;;;;4895921;29;20484;-90
2021/07/09 09:26:43;;;;;;;5.63;5.23;;;18.80;99.90;;;;;;4879332;29;20955;-88
2021/07/09 09:29:14;;;;;;;5.80;5.40;;;19.00;99.90;;;;;;4897181;29;20717;-88
2021/07/09 09:31:50;;;;;;;6.37;5.83;;;19.10;99.90;;;;;;4886403;29;20452;-88
2021/07/09 09:34:15;;;;;;;6.80;6.20;;;19.20;99.90;;;;;;4898174;29;20557;-89
2021/07/09 09:36:57;;;;;;;5.83;5.43;;;19.50;99.90;;;;;;4880480;29;21097;-88
2021/07/09 09:39:23;;;;;;;6.30;5.80;;;19.60;99.90;;;;;;4886696;29;20197;-88
2021/07/09 09:42:07;;;;;;;6.57;5.73;;;19.70;99.90;;;;;;4897576;29;20463;-88
2021/07/09 09:44:33;;;;;;;5.27;4.77;;;19.50;99.90;;;;;;4898284;29;20219;-88
2021/07/09 09:47:17;;;;;;;4.97;4.50;;;19.20;99.90;;;;;;4876693;29;20487;-88
2021/07/09 09:49:45;;;;;;;5.90;5.40;;;19.00;99.90;;;;;;4898654;29;20560;-88
2021/07/09 09:52:34;;;;;;;6.10;5.57;;;18.90;99.90;;;;;;4895321;29;21022;-88
2021/07/09 09:55:02;;;;;;;5.23;4.73;;;18.90;99.90;;;;;;4886059;29;20538;-88
2021/07/09 09:57:28;;;;;;;5.70;5.30;;;19.00;99.90;;;;;;4885705;29;20448;-88
2021/07/09 09:59:54;;;;;;;5.30;4.80;;;19.30;99.90;;;;;;4885003;29;20979;-88
2021/07/09 10:02:23;;;;;;;4.60;4.30;;;19.50;99.90;;;;;;4902655;29;20184;-88
2021/07/09 10:04:49;;;;;;;5.03;4.60;;;19.70;99.90;;;;;;4898079;29;20508;-88
2021/07/09 10:07:18;;;;;;;4.50;4.10;;;19.90;99.90;;;;;;4883201;29;20561;-88
2021/07/09 10:09:45;;;;;;;5.40;4.67;;;20.00;99.90;;;;;;4890519;29;20547;-87
2021/07/09 10:12:16;;;;;;;5.40;5.00;;;20.00;99.90;;;;;;4899040;29;20505;-88
2021/07/09 10:14:44;;;;;;;5.93;5.43;;;20.10;99.90;;;;;;4889913;29;20467;-87
2021/07/09 10:17:10;;;;;;;4.70;4.30;;;20.60;99.90;;;;;;4896523;29;20483;-88
2021/07/09 10:19:40;;;;;;;5.70;5.30;;;20.90;99.90;;;;;;4881494;29;20456;-88
2021/07/09 10:22:07;;;;;;;5.07;4.73;;;20.80;99.90;;;;;;4880111;29;20507;-88
2021/07/09 10:24:35;;;;;;;5.40;4.93;;;20.50;99.90;;;;;;4881844;29;20543;-88
2021/07/09 10:27:02;;;;;;;6.43;5.33;;;19.90;99.90;;;;;;4884945;29;20526;-89
2021/07/09 10:29:36;;;;;;;5.47;5.00;;;19.80;99.90;;;;;;4879684;29;20461;-88
2021/07/09 10:32:04;;;;;;;6.10;5.60;;;19.90;99.90;;;;;;4881604;29;20454;-90
2021/07/09 10:34:50;;;;;;;6.03;5.63;;;20.00;99.90;;;;;;4899730;29;20564;-88
2021/07/09 10:37:30;;;;;;;8.80;5.70;;;20.20;99.90;;;;;;4896350;29;20449;-90
2021/07/09 10:40:06;;;;;;;6.00;5.53;;;20.60;99.90;;;;;;4898716;29;20456;-88
2021/07/09 10:42:40;;;;;;;5.97;5.40;;;20.70;99.90;;;;;;4896934;29;20965;-88
2021/07/09 10:45:11;;;;;;;6.13;5.73;;;21.20;99.90;;;;;;4880864;29;20524;-88
2021/07/09 10:47:45;;;;;;;6.30;5.80;;;21.60;99.90;;;;;;4896991;29;20484;-88
2021/07/09 10:50:11;;;;;;;6.03;5.53;;;21.50;99.90;;;;;;4881267;29;20441;-88
2021/07/09 10:52:57;;;;;;;6.10;5.50;;;21.00;99.90;;;;;;4900758;29;20789;-89
2021/07/09 10:55:28;;;;;;;10.37;5.90;;;20.50;99.90;;;;;;4903449;29;20491;-88
2021/07/09 10:58:06;;;;;;;8.60;7.90;;;19.90;99.90;;;;;;4902184;29;20536;-90
2021/07/09 11:00:55;;;;;;;9.23;8.30;;;19.20;99.90;;;;;;4884018;29;20466;-89
2021/07/09 11:03:24;;;;;;;9.23;7.97;;;18.20;99.90;;;;;;4880171;29;20540;-90
2021/07/09 11:06:10;;;;;;;10.23;9.33;;;17.70;99.90;;;;;;4887469;29;20456;-89
2021/07/09 11:08:40;;;;;;;10.23;9.43;;;17.50;99.90;;;;;;4897829;29;20908;-90
2021/07/09 11:11:12;;;;;;;10.40;9.60;;;17.60;99.90;;;;;;4885276;29;20451;-90
2021/07/09 11:13:48;;;;;;;10.80;9.70;;;17.80;99.90;;;;;;4885471;29;20537;-89
2021/07/09 11:16:20;;;;;;;10.73;9.83;;;18.00;99.90;;;;;;4883906;29;20464;-89
2021/07/09 11:19:07;;;;;;;12.00;10.73;;;18.10;99.90;;;;;;4903867;29;20452;-90
2021/07/09 11:21:40;;;;;;;10.73;9.90;;;18.20;99.90;;;;;;4896529;29;20464;-87
2021/07/09 11:25:04;;;;;;;12.00;10.23;;;18.20;99.90;;;;;;4899291;29;20452;-88
2021/07/09 11:27:44;;;;;;;10.50;9.60;;;18.20;99.90;;;;;;4881739;29;20487;-88
2021/07/09 11:30:20;;;;;;;11.17;10.27;;;18.60;99.90;;;;;;4893688;29;20475;-88
2021/07/09 11:33:02;;;;;;;10.10;9.20;;;19.50;99.90;;;;;;4898039;29;20519;-87
2021/07/09 11:35:34;;;;;;;11.03;10.03;;;19.60;99.90;;;;;;4889068;29;20460;-88
2021/07/09 11:38:07;;;;;;;9.70;9.00;;;19.70;99.90;;;;;;4895514;29;20510;-86
2021/07/09 11:40:33;;;;;;;9.37;8.60;;;19.90;99.90;;;;;;4885564;29;20467;-87
2021/07/09 11:43:03;;;;;;;10.37;9.43;;;20.50;99.90;;;;;;4886988;29;20472;-87
2021/07/09 11:45:31;;;;;;;9.03;8.27;;;21.00;99.90;;;;;;4897019;29;20926;-87
2021/07/09 11:48:25;;;;;;;9.70;8.90;;;21.30;99.90;;;;;;4895339;29;20543;-87
2021/07/09 11:50:51;;;;;;;8.00;7.30;;;21.20;99.90;;;;;;4881480;29;20693;-90
2021/07/09 11:53:17;;;;;;;7.63;7.03;;;21.90;99.90;;;;;;4888268;29;20560;-89
2021/07/09 11:55:43;;;;;;;8.20;7.60;;;22.00;99.90;;;;;;4899394;29;20496;-89
2021/07/09 11:58:09;;;;;;;7.80;7.20;;;22.00;99.90;;;;;;4899277;29;20203;-89
2021/07/09 12:00:35;;;;;;;8.67;7.90;;;21.90;99.90;;;;;;4900781;29;20279;-89
2021/07/09 12:03:00;;;;;;;9.07;8.37;;;21.80;99.90;;;;;;4902671;29;20807;-89
2021/07/09 12:05:32;;;;;;;9.57;8.87;;;21.60;99.90;;;;;;4897882;29;20255;-88
2021/07/09 12:08:01;;;;;;;8.80;8.10;;;21.70;99.90;;;;;;4900163;29;20227;-89
2021/07/09 12:10:37;;;;;;;8.83;7.93;;;22.40;99.90;;;;;;4898057;29;20893;-89
2021/07/09 12:13:08;;;;;;;7.47;6.97;;;23.00;99.90;;;;;;4896334;29;20494;-89
2021/07/09 12:15:39;;;;;;;8.23;7.50;;;23.70;99.90;;;;;;4900088;29;20533;-88
2021/07/09 12:18:10;;;;;;;8.23;7.53;;;24.20;99.90;;;;;;4884354;29;20960;-89
2021/07/09 12:20:47;;;;;;;8.37;7.57;;;24.20;99.90;;;;;;4881704;29;20460;-88
2021/07/09 12:23:16;;;;;;;8.17;7.47;;;24.20;99.90;;;;;;4898018;29;20456;-89
2021/07/09 12:25:52;;;;;;;7.97;7.20;;;23.70;99.90;;;;;;4903226;29;20524;-88
2021/07/09 12:28:23;;;;;;;8.80;7.90;;;23.70;99.90;;;;;;4890469;29;20482;-90
2021/07/09 12:30:54;;;;;;;9.50;7.60;;;24.40;99.90;;;;;;4895049;29;20461;-89
2021/07/09 12:33:26;;;;;;;7.97;7.27;;;24.80;98.90;;;;;;4900979;29;20749;-90
2021/07/09 12:35:56;;;;;;;7.77;6.97;;;24.70;99.90;;;;;;4881973;29;20457;-89
2021/07/09 12:38:23;;;;;;;8.90;8.10;;;24.40;99.20;;;;;;4895943;29;20540;-89
2021/07/09 12:40:52;;;;;;;8.67;7.90;;;24.80;99.90;;;;;;4906563;29;20471;-89
2021/07/09 12:43:28;;;;;;;7.90;7.10;;;25.50;99.90;;;;;;4900975;29;20459;-88
2021/07/09 12:46:04;;;;;;;8.63;7.83;;;25.50;99.60;;;;;;4897620;29;20555;-89
2021/07/09 12:48:43;;;;;;;8.60;7.87;;;25.70;99.90;;;;;;4889138;29;20822;-89
2021/07/09 12:51:31;;;;;;;9.90;9.10;;;25.80;99.90;;;;;;4902811;29;20500;-88
2021/07/09 12:54:14;;;;;;;9.63;8.83;;;25.80;98.90;;;;;;4888694;29;20864;-88
2021/07/09 12:56:42;;;;;;;9.73;8.90;;;25.30;99.90;;;;;;4897195;29;20535;-88
2021/07/09 12:59:13;;;;;;;8.80;8.20;;;25.10;99.90;;;;;;4901938;29;20455;-88
2021/07/09 13:01:42;;;;;;;9.00;8.30;;;25.60;99.90;;;;;;4898010;29;20440;-88